sensor_id;sensor_type;location;lat;lon;timestamp;pressure;altitude;pressure_sealevel;temperature;humidity
70370;BME280;57790;51.356;-2.906;2023-05-29T00:01:01;102685.72;;;19.81;100.00
70370;BME280;57790;51.356;-2.906;2023-05-29T00:04:02;102685.75;;;19.73;100.00
70370;BME280;57790;51.356;-2.906;2023-05-29T00:07:02;102693.19;;;19.71;100.00
70370;BME280;57790;51.356;-2.906;2023-05-29T00:10:07;102698.56;;;19.71;100.00
70370;BME280;57790;51.356;-2.906;2023-05-29T00:13:08;102696.22;;;19.68;100.00
70370;BME280;57790;51.356;-2.906;2023-05-29T00:16:08;102708.16;;;19.66;100.00
70370;BME280;57790;51.356;-2.906;2023-05-29T00:19:09;102709.03;;;19.50;100.00
70370;BME280;57790;51.356;-2.906;2023-05-29T00:22:09;102706.69;;;19.55;100.00
70370;BME280;57790;51.356;-2.906;2023-05-29T00:25:10;102726.34;;;19.47;100.00
70370;BME280;57790;51.356;-2.906;2023-05-29T00:28:10;102719.28;;;19.46;100.00
70370;BME280;57790;51.356;-2.906;2023-05-29T00:31:12;102724.00;;;19.44;100.00
70370;BME280;57790;51.356;-2.906;2023-05-29T00:34:12;102734.06;;;19.50;100.00
70370;BME280;57790;51.356;-2.906;2023-05-29T00:37:13;102743.16;;;19.49;100.00
70370;BME280;57790;51.356;-2.906;2023-05-29T00:40:13;102732.41;;;19.49;100.00
70370;BME280;57790;51.356;-2.906;2023-05-29T00:43:14;102734.25;;;19.49;100.00
70370;BME280;57790;51.356;-2.906;2023-05-29T00:46:15;102741.00;;;19.45;100.00
70370;BME280;57790;51.356;-2.906;2023-05-29T00:49:16;102739.31;;;19.44;100.00
70370;BME280;57790;51.356;-2.906;2023-05-29T00:52:17;102745.53;;;19.44;100.00
70370;BME280;57790;51.356;-2.906;2023-05-29T00:55:18;102738.31;;;19.45;100.00
70370;BME280;57790;51.356;-2.906;2023-05-29T00:58:20;102742.66;;;19.46;100.00
70370;BME280;57790;51.356;-2.906;2023-05-29T01:01:21;102749.06;;;19.37;100.00
70370;BME280;57790;51.356;-2.906;2023-05-29T01:04:23;102749.09;;;19.28;100.00
70370;BME280;57790;51.356;-2.906;2023-05-29T01:07:23;102749.28;;;19.27;100.00
70370;BME280;57790;51.356;-2.906;2023-05-29T01:10:26;102756.84;;;19.15;100.00
70370;BME280;57790;51.356;-2.906;2023-05-29T01:13:29;102757.19;;;18.96;100.00
70370;BME280;57790;51.356;-2.906;2023-05-29T01:16:43;102761.75;;;18.95;100.00
70370;BME280;57790;51.356;-2.906;2023-05-29T01:20:18;102766.75;;;18.90;100.00
70370;BME280;57790;51.356;-2.906;2023-05-29T01:26:58;102764.25;;;18.81;100.00
70370;BME280;57790;51.356;-2.906;2023-05-29T01:30:02;102760.88;;;18.79;100.00
70370;BME280;57790;51.356;-2.906;2023-05-29T01:33:03;102767.25;;;18.69;100.00
70370;BME280;57790;51.356;-2.906;2023-05-29T01:36:04;102761.16;;;18.59;100.00
70370;BME280;57790;51.356;-2.906;2023-05-29T01:39:06;102775.94;;;18.55;100.00
70370;BME280;57790;51.356;-2.906;2023-05-29T01:42:08;102769.19;;;18.51;100.00
70370;BME280;57790;51.356;-2.906;2023-05-29T01:45:09;102778.25;;;18.50;100.00
70370;BME280;57790;51.356;-2.906;2023-05-29T01:48:10;102776.91;;;18.46;100.00
70370;BME280;57790;51.356;-2.906;2023-05-29T01:51:12;102779.59;;;18.46;100.00
70370;BME280;57790;51.356;-2.906;2023-05-29T01:54:13;102780.25;;;18.40;100.00
70370;BME280;57790;51.356;-2.906;2023-05-29T01:57:13;102775.03;;;18.30;100.00
70370;BME280;57790;51.356;-2.906;2023-05-29T02:00:16;102783.75;;;18.24;100.00
70370;BME280;57790;51.356;-2.906;2023-05-29T02:03:17;102783.88;;;18.14;100.00
70370;BME280;57790;51.356;-2.906;2023-05-29T02:06:17;102787.50;;;18.05;100.00
70370;BME280;57790;51.356;-2.906;2023-05-29T02:09:18;102772.72;;;18.01;100.00
70370;BME280;57790;51.356;-2.906;2023-05-29T02:12:18;102783.28;;;17.95;100.00
70370;BME280;57790;51.356;-2.906;2023-05-29T02:15:19;102779.38;;;17.89;100.00
70370;BME280;57790;51.356;-2.906;2023-05-29T02:18:19;102783.56;;;17.83;100.00
70370;BME280;57790;51.356;-2.906;2023-05-29T02:21:20;102774.63;;;17.75;100.00
70370;BME280;57790;51.356;-2.906;2023-05-29T02:24:20;102780.47;;;17.70;100.00
70370;BME280;57790;51.356;-2.906;2023-05-29T02:27:21;102783.31;;;17.69;100.00
70370;BME280;57790;51.356;-2.906;2023-05-29T02:30:21;102779.69;;;17.60;100.00
70370;BME280;57790;51.356;-2.906;2023-05-29T02:33:22;102785.47;;;17.47;100.00
70370;BME280;57790;51.356;-2.906;2023-05-29T02:36:22;102788.47;;;17.44;100.00
70370;BME280;57790;51.356;-2.906;2023-05-29T02:39:22;102796.53;;;17.44;100.00
70370;BME280;57790;51.356;-2.906;2023-05-29T02:42:23;102787.81;;;17.42;100.00
70370;BME280;57790;51.356;-2.906;2023-05-29T02:45:23;102790.25;;;17.36;100.00
70370;BME280;57790;51.356;-2.906;2023-05-29T02:48:24;102779.16;;;17.31;100.00
70370;BME280;57790;51.356;-2.906;2023-05-29T02:51:26;102784.31;;;17.24;100.00
70370;BME280;57790;51.356;-2.906;2023-05-29T02:54:27;102784.09;;;17.17;100.00
70370;BME280;57790;51.356;-2.906;2023-05-29T02:57:27;102779.53;;;17.10;100.00
70370;BME280;57790;51.356;-2.906;2023-05-29T03:00:28;102778.28;;;17.04;100.00
70370;BME280;57790;51.356;-2.906;2023-05-29T03:03:28;102767.19;;;16.99;100.00
70370;BME280;57790;51.356;-2.906;2023-05-29T03:06:29;102762.16;;;16.96;100.00
70370;BME280;57790;51.356;-2.906;2023-05-29T03:09:29;102764.16;;;16.94;100.00
70370;BME280;57790;51.356;-2.906;2023-05-29T03:12:30;102759.88;;;16.83;100.00
70370;BME280;57790;51.356;-2.906;2023-05-29T03:15:30;102759.63;;;16.77;100.00
70370;BME280;57790;51.356;-2.906;2023-05-29T03:18:30;102763.06;;;16.69;100.00
70370;BME280;57790;51.356;-2.906;2023-05-29T03:21:31;102760.56;;;16.68;100.00
70370;BME280;57790;51.356;-2.906;2023-05-29T03:24:32;102762.78;;;16.62;100.00
70370;BME280;57790;51.356;-2.906;2023-05-29T03:27:35;102775.13;;;16.55;100.00
70370;BME280;57790;51.356;-2.906;2023-05-29T03:30:35;102772.91;;;16.51;100.00
70370;BME280;57790;51.356;-2.906;2023-05-29T03:33:36;102777.13;;;16.53;100.00
70370;BME280;57790;51.356;-2.906;2023-05-29T03:36:36;102782.38;;;16.45;100.00
70370;BME280;57790;51.356;-2.906;2023-05-29T03:39:36;102777.22;;;16.34;100.00
70370;BME280;57790;51.356;-2.906;2023-05-29T03:42:37;102775.53;;;16.33;100.00
70370;BME280;57790;51.356;-2.906;2023-05-29T03:45:37;102776.31;;;16.25;100.00
70370;BME280;57790;51.356;-2.906;2023-05-29T03:48:37;102778.97;;;16.25;100.00
70370;BME280;57790;51.356;-2.906;2023-05-29T03:51:38;102777.59;;;16.21;100.00
70370;BME280;57790;51.356;-2.906;2023-05-29T03:54:38;102787.75;;;16.18;100.00
70370;BME280;57790;51.356;-2.906;2023-05-29T03:57:39;102786.50;;;16.12;100.00
70370;BME280;57790;51.356;-2.906;2023-05-29T04:00:42;102790.75;;;16.05;100.00
70370;BME280;57790;51.356;-2.906;2023-05-29T04:03:42;102778.97;;;15.98;100.00
70370;BME280;57790;51.356;-2.906;2023-05-29T04:06:45;102781.25;;;15.93;100.00
70370;BME280;57790;51.356;-2.906;2023-05-29T04:09:45;102795.47;;;15.93;100.00
70370;BME280;57790;51.356;-2.906;2023-05-29T04:12:45;102795.50;;;15.84;100.00
70370;BME280;57790;51.356;-2.906;2023-05-29T04:15:46;102805.91;;;15.87;100.00
70370;BME280;57790;51.356;-2.906;2023-05-29T04:18:46;102811.69;;;15.82;100.00
70370;BME280;57790;51.356;-2.906;2023-05-29T04:21:47;102807.19;;;15.83;100.00
70370;BME280;57790;51.356;-2.906;2023-05-29T04:24:47;102808.34;;;15.70;100.00
70370;BME280;57790;51.356;-2.906;2023-05-29T04:27:48;102808.34;;;15.70;100.00
70370;BME280;57790;51.356;-2.906;2023-05-29T04:30:51;102801.31;;;15.69;100.00
70370;BME280;57790;51.356;-2.906;2023-05-29T04:33:52;102808.25;;;15.62;100.00
70370;BME280;57790;51.356;-2.906;2023-05-29T04:36:57;102815.53;;;15.60;100.00
70370;BME280;57790;51.356;-2.906;2023-05-29T04:39:58;102815.28;;;15.63;100.00
70370;BME280;57790;51.356;-2.906;2023-05-29T04:42:58;102817.38;;;15.60;100.00
70370;BME280;57790;51.356;-2.906;2023-05-29T04:46:00;102810.59;;;15.56;100.00
70370;BME280;57790;51.356;-2.906;2023-05-29T04:49:02;102828.63;;;15.54;100.00
70370;BME280;57790;51.356;-2.906;2023-05-29T04:52:03;102825.94;;;15.54;100.00
70370;BME280;57790;51.356;-2.906;2023-05-29T04:55:05;102828.22;;;15.48;100.00
70370;BME280;57790;51.356;-2.906;2023-05-29T04:58:06;102833.28;;;15.52;100.00
70370;BME280;57790;51.356;-2.906;2023-05-29T05:01:07;102833.81;;;15.55;100.00
70370;BME280;57790;51.356;-2.906;2023-05-29T05:04:14;102834.25;;;15.51;100.00
70370;BME280;57790;51.356;-2.906;2023-05-29T05:07:14;102840.00;;;15.56;100.00
70370;BME280;57790;51.356;-2.906;2023-05-29T05:10:16;102835.66;;;15.55;100.00
70370;BME280;57790;51.356;-2.906;2023-05-29T05:13:16;102840.75;;;15.48;100.00
70370;BME280;57790;51.356;-2.906;2023-05-29T05:16:16;102839.19;;;15.45;100.00
70370;BME280;57790;51.356;-2.906;2023-05-29T05:19:19;102840.84;;;15.56;100.00
70370;BME280;57790;51.356;-2.906;2023-05-29T05:22:20;102838.47;;;15.53;100.00
70370;BME280;57790;51.356;-2.906;2023-05-29T05:25:20;102844.13;;;15.50;100.00
70370;BME280;57790;51.356;-2.906;2023-05-29T05:28:21;102844.13;;;15.40;100.00
70370;BME280;57790;51.356;-2.906;2023-05-29T05:31:21;102846.66;;;15.42;100.00
70370;BME280;57790;51.356;-2.906;2023-05-29T05:34:22;102838.63;;;15.42;100.00
70370;BME280;57790;51.356;-2.906;2023-05-29T05:37:22;102847.63;;;15.41;100.00
70370;BME280;57790;51.356;-2.906;2023-05-29T05:40:24;102849.88;;;15.45;100.00
70370;BME280;57790;51.356;-2.906;2023-05-29T05:43:25;102845.94;;;15.40;100.00
70370;BME280;57790;51.356;-2.906;2023-05-29T05:46:27;102854.13;;;15.38;100.00
70370;BME280;57790;51.356;-2.906;2023-05-29T05:49:27;102855.81;;;15.49;100.00
70370;BME280;57790;51.356;-2.906;2023-05-29T05:52:28;102860.84;;;15.52;100.00
70370;BME280;57790;51.356;-2.906;2023-05-29T05:55:31;102860.16;;;15.50;100.00
70370;BME280;57790;51.356;-2.906;2023-05-29T05:58:31;102866.75;;;15.46;100.00
70370;BME280;57790;51.356;-2.906;2023-05-29T06:01:32;102864.06;;;15.56;100.00
70370;BME280;57790;51.356;-2.906;2023-05-29T06:04:33;102867.75;;;15.55;100.00
70370;BME280;57790;51.356;-2.906;2023-05-29T06:07:33;102870.84;;;15.60;100.00
70370;BME280;57790;51.356;-2.906;2023-05-29T06:10:34;102867.19;;;15.61;100.00
70370;BME280;57790;51.356;-2.906;2023-05-29T06:13:34;102866.06;;;15.54;100.00
70370;BME280;57790;51.356;-2.906;2023-05-29T06:16:34;102873.13;;;15.64;100.00
70370;BME280;57790;51.356;-2.906;2023-05-29T06:19:35;102865.06;;;15.74;100.00
70370;BME280;57790;51.356;-2.906;2023-05-29T06:22:36;102877.59;;;15.73;100.00
70370;BME280;57790;51.356;-2.906;2023-05-29T06:25:37;102880.09;;;15.85;100.00
70370;BME280;57790;51.356;-2.906;2023-05-29T06:28:38;102876.75;;;15.83;100.00
70370;BME280;57790;51.356;-2.906;2023-05-29T06:31:39;102881.22;;;15.92;100.00
70370;BME280;57790;51.356;-2.906;2023-05-29T06:34:39;102872.22;;;15.93;100.00
70370;BME280;57790;51.356;-2.906;2023-05-29T06:37:39;102874.16;;;15.91;100.00
70370;BME280;57790;51.356;-2.906;2023-05-29T06:40:40;102878.66;;;16.00;100.00
70370;BME280;57790;51.356;-2.906;2023-05-29T06:43:40;102874.28;;;15.99;100.00
70370;BME280;57790;51.356;-2.906;2023-05-29T06:46:41;102873.84;;;16.03;100.00
70370;BME280;57790;51.356;-2.906;2023-05-29T06:49:41;102865.28;;;16.00;100.00
70370;BME280;57790;51.356;-2.906;2023-05-29T06:52:41;102868.34;;;16.05;100.00
70370;BME280;57790;51.356;-2.906;2023-05-29T06:55:42;102874.97;;;16.11;100.00
70370;BME280;57790;51.356;-2.906;2023-05-29T06:58:42;102867.78;;;16.11;100.00
70370;BME280;57790;51.356;-2.906;2023-05-29T07:01:43;102866.50;;;16.15;100.00
70370;BME280;57790;51.356;-2.906;2023-05-29T07:04:43;102858.31;;;16.17;100.00
70370;BME280;57790;51.356;-2.906;2023-05-29T07:07:43;102872.97;;;16.13;100.00
70370;BME280;57790;51.356;-2.906;2023-05-29T07:10:44;102867.59;;;16.22;100.00
70370;BME280;57790;51.356;-2.906;2023-05-29T07:13:44;102869.53;;;16.30;100.00
70370;BME280;57790;51.356;-2.906;2023-05-29T07:16:45;102871.66;;;16.26;100.00
70370;BME280;57790;51.356;-2.906;2023-05-29T07:19:46;102878.84;;;16.26;100.00
70370;BME280;57790;51.356;-2.906;2023-05-29T07:22:46;102875.63;;;16.22;100.00
70370;BME280;57790;51.356;-2.906;2023-05-29T07:25:47;102869.69;;;16.28;100.00
70370;BME280;57790;51.356;-2.906;2023-05-29T07:28:47;102869.38;;;16.31;100.00
70370;BME280;57790;51.356;-2.906;2023-05-29T07:31:48;102868.06;;;16.45;100.00
70370;BME280;57790;51.356;-2.906;2023-05-29T07:34:48;102858.88;;;16.48;100.00
70370;BME280;57790;51.356;-2.906;2023-05-29T07:37:50;102860.16;;;16.44;100.00
70370;BME280;57790;51.356;-2.906;2023-05-29T07:40:52;102858.88;;;16.48;100.00
70370;BME280;57790;51.356;-2.906;2023-05-29T07:43:52;102869.00;;;16.54;100.00
70370;BME280;57790;51.356;-2.906;2023-05-29T07:46:54;102854.34;;;16.48;100.00
70370;BME280;57790;51.356;-2.906;2023-05-29T07:49:54;102860.97;;;16.54;100.00
70370;BME280;57790;51.356;-2.906;2023-05-29T07:52:54;102863.44;;;16.65;100.00
70370;BME280;57790;51.356;-2.906;2023-05-29T07:55:56;102851.16;;;16.72;100.00
70370;BME280;57790;51.356;-2.906;2023-05-29T07:58:56;102852.00;;;16.73;100.00
70370;BME280;57790;51.356;-2.906;2023-05-29T08:01:57;102858.59;;;16.78;100.00
70370;BME280;57790;51.356;-2.906;2023-05-29T08:04:58;102851.63;;;16.85;100.00
70370;BME280;57790;51.356;-2.906;2023-05-29T08:07:58;102858.47;;;16.80;100.00
70370;BME280;57790;51.356;-2.906;2023-05-29T08:10:59;102853.31;;;16.86;100.00
70370;BME280;57790;51.356;-2.906;2023-05-29T08:14:00;102848.97;;;16.85;100.00
70370;BME280;57790;51.356;-2.906;2023-05-29T08:17:00;102843.69;;;16.93;100.00
70370;BME280;57790;51.356;-2.906;2023-05-29T08:20:01;102846.06;;;16.97;100.00
70370;BME280;57790;51.356;-2.906;2023-05-29T08:23:08;102840.59;;;17.06;100.00
70370;BME280;57790;51.356;-2.906;2023-05-29T08:26:09;102838.94;;;17.05;100.00
70370;BME280;57790;51.356;-2.906;2023-05-29T08:29:09;102840.06;;;17.03;100.00
70370;BME280;57790;51.356;-2.906;2023-05-29T08:32:10;102842.91;;;17.01;100.00
70370;BME280;57790;51.356;-2.906;2023-05-29T08:35:11;102838.34;;;17.11;100.00
70370;BME280;57790;51.356;-2.906;2023-05-29T08:38:11;102850.22;;;17.09;100.00
70370;BME280;57790;51.356;-2.906;2023-05-29T08:41:21;102845.97;;;17.06;100.00
70370;BME280;57790;51.356;-2.906;2023-05-29T08:44:25;102846.97;;;17.05;100.00
70370;BME280;57790;51.356;-2.906;2023-05-29T08:47:32;102844.28;;;17.05;100.00
70370;BME280;57790;51.356;-2.906;2023-05-29T08:50:33;102836.97;;;17.07;100.00
70370;BME280;57790;51.356;-2.906;2023-05-29T08:53:35;102844.84;;;17.09;100.00
70370;BME280;57790;51.356;-2.906;2023-05-29T08:56:35;102841.53;;;17.15;100.00
70370;BME280;57790;51.356;-2.906;2023-05-29T08:59:36;102849.66;;;17.23;100.00
70370;BME280;57790;51.356;-2.906;2023-05-29T09:02:39;102836.25;;;17.23;100.00
70370;BME280;57790;51.356;-2.906;2023-05-29T09:05:39;102829.59;;;17.27;100.00
70370;BME280;57790;51.356;-2.906;2023-05-29T09:08:40;102836.94;;;17.25;100.00
70370;BME280;57790;51.356;-2.906;2023-05-29T09:11:43;102829.44;;;17.29;100.00
70370;BME280;57790;51.356;-2.906;2023-05-29T09:14:44;102842.50;;;17.32;100.00
70370;BME280;57790;51.356;-2.906;2023-05-29T09:17:55;102845.03;;;17.33;100.00
70370;BME280;57790;51.356;-2.906;2023-05-29T09:20:58;102840.50;;;17.34;100.00
70370;BME280;57790;51.356;-2.906;2023-05-29T09:24:07;102843.66;;;17.29;100.00
70370;BME280;57790;51.356;-2.906;2023-05-29T09:27:09;102832.94;;;17.29;100.00
70370;BME280;57790;51.356;-2.906;2023-05-29T09:30:30;102838.38;;;17.37;100.00
70370;BME280;57790;51.356;-2.906;2023-05-29T09:33:31;102840.28;;;17.45;100.00
70370;BME280;57790;51.356;-2.906;2023-05-29T09:36:31;102837.66;;;17.53;100.00
70370;BME280;57790;51.356;-2.906;2023-05-29T09:39:32;102837.84;;;17.51;100.00
70370;BME280;57790;51.356;-2.906;2023-05-29T09:42:32;102828.88;;;17.43;100.00
70370;BME280;57790;51.356;-2.906;2023-05-29T09:45:34;102832.06;;;17.46;100.00
70370;BME280;57790;51.356;-2.906;2023-05-29T09:48:36;102840.72;;;17.58;100.00
70370;BME280;57790;51.356;-2.906;2023-05-29T09:51:36;102843.03;;;17.53;100.00
70370;BME280;57790;51.356;-2.906;2023-05-29T09:54:37;102833.16;;;17.53;100.00
70370;BME280;57790;51.356;-2.906;2023-05-29T09:57:38;102837.13;;;17.49;100.00
70370;BME280;57790;51.356;-2.906;2023-05-29T10:00:41;102835.16;;;17.51;100.00
70370;BME280;57790;51.356;-2.906;2023-05-29T10:03:42;102827.13;;;17.60;100.00
70370;BME280;57790;51.356;-2.906;2023-05-29T10:06:46;102833.88;;;17.64;100.00
70370;BME280;57790;51.356;-2.906;2023-05-29T10:09:53;102835.13;;;17.69;100.00
70370;BME280;57790;51.356;-2.906;2023-05-29T10:12:55;102820.22;;;17.75;100.00
70370;BME280;57790;51.356;-2.906;2023-05-29T10:15:57;102826.94;;;17.79;100.00
70370;BME280;57790;51.356;-2.906;2023-05-29T10:19:00;102817.59;;;17.83;100.00
70370;BME280;57790;51.356;-2.906;2023-05-29T10:22:02;102822.31;;;17.89;100.00
70370;BME280;57790;51.356;-2.906;2023-05-29T10:25:05;102811.97;;;17.94;100.00
70370;BME280;57790;51.356;-2.906;2023-05-29T10:28:06;102822.00;;;17.92;100.00
70370;BME280;57790;51.356;-2.906;2023-05-29T10:31:09;102810.81;;;17.97;100.00
70370;BME280;57790;51.356;-2.906;2023-05-29T10:38:02;102822.41;;;18.05;100.00
70370;BME280;57790;51.356;-2.906;2023-05-29T10:41:28;102821.41;;;18.06;100.00
70370;BME280;57790;51.356;-2.906;2023-05-29T10:47:32;102819.44;;;18.17;100.00
70370;BME280;57790;51.356;-2.906;2023-05-29T10:50:37;102829.38;;;18.24;100.00
70370;BME280;57790;51.356;-2.906;2023-05-29T10:53:40;102833.44;;;18.28;100.00
70370;BME280;57790;51.356;-2.906;2023-05-29T10:56:41;102827.22;;;18.28;100.00
70370;BME280;57790;51.356;-2.906;2023-05-29T10:59:44;102822.41;;;18.39;100.00
70370;BME280;57790;51.356;-2.906;2023-05-29T11:02:45;102833.16;;;18.48;100.00
70370;BME280;57790;51.356;-2.906;2023-05-29T11:06:19;102834.19;;;18.55;100.00
70370;BME280;57790;51.356;-2.906;2023-05-29T11:09:37;102829.00;;;18.53;100.00
70370;BME280;57790;51.356;-2.906;2023-05-29T11:12:58;102827.31;;;18.52;100.00
70370;BME280;57790;51.356;-2.906;2023-05-29T11:19:32;102823.97;;;18.58;100.00
70370;BME280;57790;51.356;-2.906;2023-05-29T11:25:59;102814.13;;;18.67;100.00
70370;BME280;57790;51.356;-2.906;2023-05-29T11:29:01;102800.50;;;18.68;100.00
70370;BME280;57790;51.356;-2.906;2023-05-29T11:32:05;102799.16;;;18.72;100.00
70370;BME280;57790;51.356;-2.906;2023-05-29T11:35:09;102799.84;;;18.75;100.00
70370;BME280;57790;51.356;-2.906;2023-05-29T11:38:10;102797.66;;;18.78;100.00
70370;BME280;57790;51.356;-2.906;2023-05-29T11:41:10;102798.19;;;18.82;100.00
70370;BME280;57790;51.356;-2.906;2023-05-29T11:44:13;102805.56;;;18.88;100.00
70370;BME280;57790;51.356;-2.906;2023-05-29T11:47:14;102801.06;;;18.96;100.00
70370;BME280;57790;51.356;-2.906;2023-05-29T11:50:29;102799.00;;;19.07;100.00
70370;BME280;57790;51.356;-2.906;2023-05-29T11:53:29;102790.78;;;19.16;100.00
70370;BME280;57790;51.356;-2.906;2023-05-29T11:56:30;102792.31;;;19.19;100.00
70370;BME280;57790;51.356;-2.906;2023-05-29T11:59:34;102793.50;;;19.24;100.00
70370;BME280;57790;51.356;-2.906;2023-05-29T12:02:36;102792.81;;;19.30;100.00
70370;BME280;57790;51.356;-2.906;2023-05-29T12:05:47;102792.31;;;19.27;100.00
70370;BME280;57790;51.356;-2.906;2023-05-29T12:08:51;102788.94;;;19.25;100.00
70370;BME280;57790;51.356;-2.906;2023-05-29T12:11:51;102783.41;;;19.26;100.00
70370;BME280;57790;51.356;-2.906;2023-05-29T12:14:51;102782.88;;;19.31;100.00
70370;BME280;57790;51.356;-2.906;2023-05-29T12:17:53;102801.72;;;19.39;100.00
70370;BME280;57790;51.356;-2.906;2023-05-29T12:21:01;102794.47;;;19.48;100.00
70370;BME280;57790;51.356;-2.906;2023-05-29T12:24:02;102788.59;;;19.44;100.00
70370;BME280;57790;51.356;-2.906;2023-05-29T12:27:05;102791.59;;;19.49;100.00
70370;BME280;57790;51.356;-2.906;2023-05-29T12:30:19;102785.06;;;19.60;100.00
70370;BME280;57790;51.356;-2.906;2023-05-29T12:33:27;102790.91;;;19.64;100.00
70370;BME280;57790;51.356;-2.906;2023-05-29T12:36:28;102782.00;;;19.71;100.00
70370;BME280;57790;51.356;-2.906;2023-05-29T12:39:29;102779.31;;;19.71;100.00
70370;BME280;57790;51.356;-2.906;2023-05-29T12:42:29;102779.63;;;19.76;100.00
70370;BME280;57790;51.356;-2.906;2023-05-29T12:45:31;102774.91;;;19.78;100.00
70370;BME280;57790;51.356;-2.906;2023-05-29T12:48:32;102777.59;;;19.78;100.00
70370;BME280;57790;51.356;-2.906;2023-05-29T12:51:33;102776.41;;;19.81;100.00
70370;BME280;57790;51.356;-2.906;2023-05-29T12:54:34;102780.09;;;19.88;100.00
70370;BME280;57790;51.356;-2.906;2023-05-29T12:57:35;102776.19;;;19.99;100.00
70370;BME280;57790;51.356;-2.906;2023-05-29T13:00:39;102763.06;;;19.96;100.00
70370;BME280;57790;51.356;-2.906;2023-05-29T13:03:40;102774.50;;;19.98;100.00
70370;BME280;57790;51.356;-2.906;2023-05-29T13:06:41;102780.38;;;20.01;100.00
70370;BME280;57790;51.356;-2.906;2023-05-29T13:09:41;102778.16;;;20.05;100.00
70370;BME280;57790;51.356;-2.906;2023-05-29T13:12:42;102779.66;;;20.07;100.00
70370;BME280;57790;51.356;-2.906;2023-05-29T13:15:42;102765.38;;;20.07;100.00
70370;BME280;57790;51.356;-2.906;2023-05-29T13:18:43;102771.94;;;20.12;100.00
70370;BME280;57790;51.356;-2.906;2023-05-29T13:21:44;102776.13;;;20.15;99.85
70370;BME280;57790;51.356;-2.906;2023-05-29T13:24:48;102776.13;;;20.15;99.94
70370;BME280;57790;51.356;-2.906;2023-05-29T13:27:49;102774.44;;;20.14;98.33
70370;BME280;57790;51.356;-2.906;2023-05-29T13:30:49;102781.44;;;20.23;100.00
70370;BME280;57790;51.356;-2.906;2023-05-29T13:33:50;102770.28;;;20.34;99.50
70370;BME280;57790;51.356;-2.906;2023-05-29T13:36:50;102774.00;;;20.33;96.84
70370;BME280;57790;51.356;-2.906;2023-05-29T13:39:51;102770.75;;;20.38;100.00
70370;BME280;57790;51.356;-2.906;2023-05-29T13:42:51;102766.84;;;20.48;99.20
70370;BME280;57790;51.356;-2.906;2023-05-29T13:45:52;102772.25;;;20.48;97.69
70370;BME280;57790;51.356;-2.906;2023-05-29T13:48:52;102762.31;;;20.49;98.66
70370;BME280;57790;51.356;-2.906;2023-05-29T13:51:53;102758.19;;;20.61;98.96
70370;BME280;57790;51.356;-2.906;2023-05-29T13:54:53;102757.97;;;20.71;98.63
70370;BME280;57790;51.356;-2.906;2023-05-29T13:57:53;102760.84;;;20.69;98.66
70370;BME280;57790;51.356;-2.906;2023-05-29T14:00:54;102756.81;;;20.65;97.53
70370;BME280;57790;51.356;-2.906;2023-05-29T14:03:54;102764.59;;;20.60;96.12
70370;BME280;57790;51.356;-2.906;2023-05-29T14:06:55;102770.09;;;20.67;98.44
70370;BME280;57790;51.356;-2.906;2023-05-29T14:09:56;102769.13;;;20.83;98.79
70370;BME280;57790;51.356;-2.906;2023-05-29T14:12:56;102761.38;;;20.88;97.80
70370;BME280;57790;51.356;-2.906;2023-05-29T14:15:57;102764.81;;;20.96;97.57
70370;BME280;57790;51.356;-2.906;2023-05-29T14:18:58;102765.19;;;20.93;96.99
70370;BME280;57790;51.356;-2.906;2023-05-29T14:21:58;102762.81;;;20.98;97.17
70370;BME280;57790;51.356;-2.906;2023-05-29T14:25:03;102761.22;;;21.04;97.45
70370;BME280;57790;51.356;-2.906;2023-05-29T14:28:04;102762.44;;;21.01;96.65
70370;BME280;57790;51.356;-2.906;2023-05-29T14:31:06;102771.19;;;21.03;95.37
70370;BME280;57790;51.356;-2.906;2023-05-29T14:34:07;102764.56;;;21.06;96.04
70370;BME280;57790;51.356;-2.906;2023-05-29T14:37:07;102769.06;;;21.14;96.17
70370;BME280;57790;51.356;-2.906;2023-05-29T14:40:08;102765.16;;;21.16;96.16
70370;BME280;57790;51.356;-2.906;2023-05-29T14:43:09;102766.84;;;21.17;96.40
70370;BME280;57790;51.356;-2.906;2023-05-29T14:46:09;102762.22;;;21.26;96.49
70370;BME280;57790;51.356;-2.906;2023-05-29T14:49:10;102763.81;;;21.35;97.24
70370;BME280;57790;51.356;-2.906;2023-05-29T14:52:10;102764.84;;;21.34;96.33
70370;BME280;57790;51.356;-2.906;2023-05-29T14:55:10;102757.72;;;21.41;96.60
70370;BME280;57790;51.356;-2.906;2023-05-29T14:58:11;102754.72;;;21.36;95.25
70370;BME280;57790;51.356;-2.906;2023-05-29T15:01:15;102757.22;;;21.37;96.67
70370;BME280;57790;51.356;-2.906;2023-05-29T15:04:16;102749.50;;;21.34;95.49
70370;BME280;57790;51.356;-2.906;2023-05-29T15:07:16;102753.69;;;21.37;96.03
70370;BME280;57790;51.356;-2.906;2023-05-29T15:10:17;102745.88;;;21.42;96.54
70370;BME280;57790;51.356;-2.906;2023-05-29T15:13:20;102754.13;;;21.41;94.97
70370;BME280;57790;51.356;-2.906;2023-05-29T15:16:21;102750.59;;;21.40;95.66
70370;BME280;57790;51.356;-2.906;2023-05-29T15:19:21;102748.22;;;21.45;93.77
70370;BME280;57790;51.356;-2.906;2023-05-29T15:22:22;102740.31;;;21.44;94.33
70370;BME280;57790;51.356;-2.906;2023-05-29T15:25:22;102747.38;;;21.45;94.85
70370;BME280;57790;51.356;-2.906;2023-05-29T15:28:23;102745.78;;;21.50;94.57
70370;BME280;57790;51.356;-2.906;2023-05-29T15:31:24;102746.34;;;21.60;95.31
70370;BME280;57790;51.356;-2.906;2023-05-29T15:34:25;102741.78;;;21.61;94.13
70370;BME280;57790;51.356;-2.906;2023-05-29T15:37:25;102753.44;;;21.61;94.04
70370;BME280;57790;51.356;-2.906;2023-05-29T15:40:26;102752.22;;;21.64;92.17
70370;BME280;57790;51.356;-2.906;2023-05-29T15:43:26;102746.63;;;21.65;92.74